Terminal Aerodrome Forecast
Issued by NWS

Home | Current Version | Previous Version | Text Only | Print | Product List | Glossary On
Versions: 1 2 3 4 5 6 7 8 9 10 11 12 13 14 15
000
FTUS43 KEAX 241700
TAFSTJ
TAF
KSTJ 241720Z 2418/2518 17010G20KT P6SM OVC025
     FM242100 17012G22KT P6SM BKN035
     FM250100 17014G23KT P6SM -SHRA VCTS BKN025CB
      TEMPO 2503/2507 -TSRA BKN025CB
     FM250900 22010KT P6SM -SHRA OVC009
     FM251500 27012KT P6SM BKN015=

USA.gov is the U.S. government's official web portal to all federal, state and local government web resources and services.